createdAt,value
2018-09-03T00:05:23.157Z,5.54
2018-09-03T00:11:18.176Z,5
2018-09-03T00:17:13.176Z,5.14
2018-09-03T00:23:08.155Z,5.16
2018-09-03T00:29:03.226Z,4.98
2018-09-03T00:34:58.177Z,4.95
2018-09-03T00:40:53.192Z,5.59
2018-09-03T00:46:48.158Z,5.32
2018-09-03T00:52:43.244Z,4.76
2018-09-03T00:58:38.204Z,4.4
2018-09-03T01:04:33.182Z,4.79
2018-09-03T01:10:28.221Z,4.01
2018-09-03T01:16:23.194Z,4.68
2018-09-03T01:22:18.224Z,4.13
2018-09-03T01:28:13.201Z,4.73
2018-09-03T01:34:08.229Z,4.21
2018-09-03T01:40:03.394Z,4.41
2018-09-03T01:45:58.205Z,4.89
2018-09-03T01:51:53.217Z,4.39
2018-09-03T01:57:48.239Z,3.93
2018-09-03T02:03:43.269Z,4.15
2018-09-03T02:09:38.238Z,4.21
2018-09-03T02:15:33.237Z,4.14
2018-09-03T02:21:28.242Z,4.59
2018-09-03T02:27:23.232Z,4.83
2018-09-03T02:33:18.302Z,4.81
2018-09-03T02:39:13.269Z,5.21
2018-09-03T02:45:08.308Z,5.23
2018-09-03T02:51:03.257Z,5.54
2018-09-03T02:56:58.282Z,5.6
2018-09-03T03:02:53.251Z,4.72
2018-09-03T03:08:48.288Z,5.08
2018-09-03T03:14:43.270Z,5.33
2018-09-03T03:20:38.264Z,4.66
2018-09-03T03:26:33.280Z,5.43
2018-09-03T03:32:28.269Z,5.33
2018-09-03T03:38:23.332Z,5.31
2018-09-03T03:44:18.299Z,4.75
2018-09-03T03:50:13.278Z,4.74
2018-09-03T03:56:08.314Z,4.44
2018-09-03T04:02:03.285Z,4.58
2018-09-03T04:07:58.487Z,4.91
2018-09-03T04:13:53.304Z,5.02
2018-09-03T04:19:48.315Z,4.77
2018-09-03T04:25:43.362Z,4.29
2018-09-03T04:31:38.307Z,5.08
2018-09-03T04:37:33.329Z,4.81
2018-09-03T04:43:28.340Z,4.79
2018-09-03T04:49:23.325Z,5.18
2018-09-03T04:55:18.483Z,4.32
2018-09-03T05:01:13.326Z,4.5
2018-09-03T05:07:08.350Z,5.15
2018-09-03T05:13:03.328Z,4.98
2018-09-03T05:18:58.350Z,5.16
2018-09-03T05:24:53.358Z,5.1
2018-09-03T05:30:48.343Z,6.1
2018-09-03T05:36:43.347Z,6.26
2018-09-03T05:42:38.380Z,6.73
2018-09-03T05:48:33.349Z,6.53
2018-09-03T05:54:28.357Z,6.57
2018-09-03T06:00:23.384Z,6.04
2018-09-03T06:06:18.431Z,5.49
2018-09-03T06:12:13.374Z,6.58
2018-09-03T06:18:08.422Z,5.54
2018-09-03T06:24:03.383Z,6.21
2018-09-03T06:29:58.418Z,6.16
2018-09-03T06:35:53.466Z,5.75
2018-09-03T06:41:48.403Z,6.03
2018-09-03T06:47:43.404Z,6.5
2018-09-03T06:53:38.395Z,6.03
2018-09-03T06:59:33.418Z,6.06
2018-09-03T07:05:28.418Z,7.5
2018-09-03T07:11:23.507Z,7.72
2018-09-03T07:17:18.401Z,8.29
2018-09-03T07:23:13.439Z,8.84
2018-09-03T07:29:08.414Z,9.65
2018-09-03T07:35:03.619Z,9.85
2018-09-03T07:40:58.415Z,11.89
2018-09-03T07:46:53.442Z,11.8
2018-09-03T07:52:48.450Z,7.52
2018-09-03T07:58:43.483Z,6.65
2018-09-03T08:04:38.444Z,5.99
2018-09-03T08:10:33.432Z,6
2018-09-03T08:16:28.435Z,6.36
2018-09-03T08:22:23.463Z,6.03
2018-09-03T08:28:18.481Z,6.25
2018-09-03T08:34:13.456Z,6.82
2018-09-03T08:40:08.472Z,6.05
2018-09-03T08:46:03.487Z,6.14
2018-09-03T08:51:58.464Z,5.8
2018-09-03T08:57:53.507Z,6.9
2018-09-03T09:03:48.502Z,6.79
2018-09-03T09:09:43.485Z,6.62
2018-09-03T09:15:38.486Z,6.65
2018-09-03T09:21:33.496Z,7.7
2018-09-03T09:27:28.509Z,5.54
2018-09-03T09:33:23.532Z,6.54
2018-09-03T09:39:18.511Z,5.08
2018-09-03T09:45:13.511Z,4.22
2018-09-03T09:51:08.617Z,4.98
2018-09-03T09:57:03.535Z,4.67
2018-09-03T10:02:58.544Z,5.88
2018-09-03T10:08:53.528Z,4.79
2018-09-03T10:14:48.595Z,4.4
2018-09-03T10:20:43.587Z,5.93
2018-09-03T10:26:38.534Z,4.59
2018-09-03T10:32:33.555Z,4.58
2018-09-03T10:38:28.542Z,4.25
2018-09-03T10:44:23.528Z,3.31
2018-09-03T10:50:18.541Z,3.27
2018-09-03T10:56:13.553Z,3.63
2018-09-03T11:02:08.578Z,3.75
2018-09-03T11:08:03.579Z,2.97
2018-09-03T11:13:58.534Z,2.63
2018-09-03T11:19:53.622Z,2.53
2018-09-03T11:25:48.574Z,2.74
2018-09-03T11:31:43.567Z,2.67
2018-09-03T11:37:38.602Z,2.6
2018-09-03T11:43:33.570Z,2.62
2018-09-03T11:49:28.556Z,2.43
2018-09-03T11:55:23.596Z,2.5
2018-09-03T12:01:18.598Z,2.63
2018-09-03T12:07:13.621Z,2.51
2018-09-03T12:13:08.584Z,3.56
2018-09-03T12:19:03.603Z,4.78
2018-09-03T12:24:58.633Z,5.06
2018-09-03T12:30:53.619Z,4.78
2018-09-03T12:36:48.675Z,4.5
2018-09-03T12:42:43.618Z,5.33
2018-09-03T12:48:38.622Z,4.86
2018-09-03T12:54:33.656Z,4.46
2018-09-03T13:00:28.607Z,3.83
2018-09-03T13:06:23.814Z,3.85
2018-09-03T13:12:18.629Z,2.98
2018-09-03T13:18:13.627Z,2.9
2018-09-03T13:24:08.622Z,2.73
2018-09-03T13:30:03.666Z,2.33
2018-09-03T13:35:58.674Z,2.3
2018-09-03T13:41:53.654Z,2.33
2018-09-03T13:47:48.662Z,1.8
2018-09-03T13:53:43.654Z,2.5
2018-09-03T13:59:38.640Z,2.79
2018-09-03T14:05:33.652Z,2.38
2018-09-03T14:11:28.681Z,2.07
2018-09-03T14:17:23.706Z,1.87
2018-09-03T14:23:18.667Z,1.72
2018-09-03T14:29:13.686Z,1.26
2018-09-03T14:35:08.666Z,1.84
2018-09-03T14:41:03.683Z,2.06
2018-09-03T14:46:58.694Z,2.15
2018-09-03T14:52:53.703Z,1.84
2018-09-03T14:58:48.695Z,1.66
2018-09-03T15:04:43.731Z,1.68
2018-09-03T15:10:38.704Z,1.85
2018-09-03T15:16:33.719Z,1.73
2018-09-03T15:22:28.932Z,2.21
2018-09-03T15:28:23.762Z,2.17
2018-09-03T15:34:18.760Z,2.23
2018-09-03T15:40:13.707Z,1.65
2018-09-03T15:46:08.719Z,1.87
2018-09-03T15:52:03.719Z,1.64
2018-09-03T15:57:58.795Z,2.12
2018-09-03T16:03:53.767Z,1.64
2018-09-03T16:09:48.740Z,1.9
2018-09-03T16:15:43.767Z,1.65
2018-09-03T16:21:38.747Z,2.02
2018-09-03T16:27:34.038Z,1.89
2018-09-03T16:33:28.883Z,1.68
2018-09-03T16:39:23.780Z,1.71
2018-09-03T16:45:18.750Z,1.69
2018-09-03T16:51:13.754Z,2.24
2018-09-03T16:57:08.810Z,2.06
2018-09-03T17:03:03.763Z,1.53
2018-09-03T17:08:58.770Z,1.99
2018-09-03T17:14:53.837Z,1.93
2018-09-03T17:20:48.800Z,1.85
2018-09-03T17:26:43.777Z,2.66
2018-09-03T17:32:38.883Z,2.23
2018-09-03T17:38:33.803Z,2.43
2018-09-03T17:44:28.824Z,2.35
2018-09-03T17:50:23.812Z,2.89
2018-09-03T17:56:18.836Z,2.85
2018-09-03T18:02:13.797Z,2.74
2018-09-03T18:08:08.845Z,2.62
2018-09-03T18:14:03.903Z,2.89
2018-09-03T18:19:58.808Z,2.72
2018-09-03T18:25:53.834Z,3.33
2018-09-03T18:31:48.827Z,3.62
2018-09-03T18:37:43.840Z,2.57
2018-09-03T18:43:38.851Z,2.8
2018-09-03T18:49:33.854Z,2.69
2018-09-03T18:55:28.841Z,2.62
2018-09-03T19:01:23.887Z,2.38
2018-09-03T19:07:18.844Z,2.85
2018-09-03T19:13:13.850Z,2.6
2018-09-03T19:19:08.920Z,3.24
2018-09-03T19:25:03.905Z,3.29
2018-09-03T19:30:58.858Z,3.78
2018-09-03T19:36:53.868Z,3.3
2018-09-03T19:42:48.948Z,3.23
2018-09-03T19:48:43.965Z,3.41
2018-09-03T19:54:38.971Z,3.79
2018-09-03T20:00:33.947Z,4.77
2018-09-03T20:06:28.899Z,4.31
2018-09-03T20:12:23.938Z,4.32
2018-09-03T20:18:18.881Z,4.54
2018-09-03T20:24:13.900Z,6.01
2018-09-03T20:30:08.965Z,7.46
2018-09-03T20:36:03.937Z,7.03
2018-09-03T20:41:58.911Z,6.54
2018-09-03T20:47:54.012Z,6.04
2018-09-03T20:53:48.926Z,5.78
2018-09-03T20:59:43.932Z,6.08
2018-09-03T21:05:38.944Z,6.54
2018-09-03T21:11:34.012Z,5.88
2018-09-03T21:17:28.919Z,5.72
2018-09-03T21:23:23.940Z,5.8
2018-09-03T21:29:19.093Z,5.83
2018-09-03T21:35:13.948Z,6.66
2018-09-03T21:41:08.930Z,8.38
2018-09-03T21:47:03.964Z,5.98
2018-09-03T21:52:58.988Z,5.74
2018-09-03T21:58:53.948Z,5.44
2018-09-03T22:04:48.954Z,5.44
2018-09-03T22:10:43.973Z,5.61
2018-09-03T22:16:38.968Z,5.23
2018-09-03T22:22:33.985Z,5.04
2018-09-03T22:28:29.021Z,4.36
2018-09-03T22:34:24.001Z,4.67
2018-09-03T22:40:18.984Z,4.93
2018-09-03T22:46:13.999Z,4.49
2018-09-03T22:52:09.034Z,4.51
2018-09-03T22:58:04.032Z,4.29
2018-09-03T23:03:58.993Z,5.58
2018-09-03T23:09:54.010Z,5.97
2018-09-03T23:15:48.989Z,7.21
2018-09-03T23:21:44.046Z,7.27
2018-09-03T23:27:39.018Z,6.61
2018-09-03T23:33:34.042Z,6.41
2018-09-03T23:39:29.018Z,6.1
2018-09-03T23:45:24.059Z,5.95
2018-09-03T23:51:19.061Z,5.88
2018-09-03T23:57:14.040Z,5.96
